Terminal Aerodrome Forecast
Issued by NWS

Home | Current Version | Previous Version | Text Only | Print | Product List | Glossary On
Versions: 1 2 3 4 5 6 7 8 9 10 11 12
956
FTUS45 KABQ 261143 RRA
TAFGUP
TAF
KGUP 261143Z 2612/2712 24010KT 6SM BR VCSH BKN030 OVC070
     FM261500 24010KT P6SM OVC060
     FM262000 24012G20KT P6SM VCSH OVC040
     FM270000 21010KT P6SM SCT050=

USA.gov is the U.S. government's official web portal to all federal, state and local government web resources and services.